Time,TemperatureF,DewpointF,PressureIn,WindDirection,WindDirectionDegrees,WindSpeedMPH,WindSpeedGustMPH,Humidity,HourlyPrecipIn,Conditions,Clouds,dailyrainin,SolarRadiationWatts/m^2,SoftwareType,DateUTC
2013-06-16 00:11:00,44.0,33.0,-100.00,NNE,30,0.0,0.0,64,-99.99,,,0.00,0.000000,,2013-06-16 07:11:00,
2013-06-16 06:43:00,33.0,8.0,-100.00,SSE,156,0.0,0.0,35,-99.99,,,0.00,10.000000,,2013-06-16 13:43:00,
2013-06-16 07:44:00,56.0,14.0,-100.00,ESE,114,0.0,0.0,19,-99.99,,,0.00,233.000000,,2013-06-16 14:44:00,
2013-06-16 07:52:00,56.0,14.0,-100.00,ESE,114,0.0,0.0,19,-99.99,,,0.00,233.000000,,2013-06-16 14:52:00,
2013-06-16 08:12:00,56.0,14.0,-100.00,ESE,114,0.0,0.0,19,-99.99,,,0.00,233.000000,,2013-06-16 15:12:00,
2013-06-16 08:43:00,72.0,12.0,-100.00,SSW,194,0.0,0.0,10,0.00,,,0.00,555.000000,,2013-06-16 15:43:00,
2013-06-16 08:52:00,72.0,12.0,-100.00,SSW,194,0.0,0.0,10,0.00,,,0.00,555.000000,,2013-06-16 15:52:00,
2013-06-16 09:01:00,72.0,12.0,-100.00,SSW,194,0.0,0.0,10,0.00,,,0.00,555.000000,,2013-06-16 16:01:00,
2013-06-16 09:11:00,72.0,12.0,-100.00,SSW,194,0.0,0.0,10,0.00,,,0.00,555.000000,,2013-06-16 16:11:00,
2013-06-16 11:43:00,84.0,6.0,-100.00,SSW,193,8.0,15.0,5,0.00,,,0.00,1283.000000,,2013-06-16 18:43:00,
2013-06-16 11:52:00,84.0,6.0,-100.00,SSW,193,8.0,15.0,5,0.00,,,0.00,1283.000000,,2013-06-16 18:52:00,
2013-06-16 12:01:00,84.0,6.0,-100.00,SSW,193,8.0,15.0,5,0.00,,,0.00,1283.000000,,2013-06-16 19:01:00,
2013-06-16 12:43:00,84.0,13.0,-100.00,SSW,199,9.0,17.0,7,0.00,,,0.00,1398.000000,,2013-06-16 19:43:00,
2013-06-16 12:53:00,84.0,13.0,-100.00,SSW,199,9.0,17.0,7,0.00,,,0.00,1398.000000,,2013-06-16 19:53:00,
2013-06-16 13:01:00,84.0,13.0,-100.00,SSW,199,9.0,17.0,7,0.00,,,0.00,1398.000000,,2013-06-16 20:01:00,
2013-06-16 13:11:00,84.0,13.0,-100.00,SSW,199,9.0,17.0,7,0.00,,,0.00,1398.000000,,2013-06-16 20:11:00,
2013-06-16 13:43:00,86.0,21.0,-100.00,SW,224,7.0,23.0,9,0.00,,,0.00,1418.000000,,2013-06-16 20:43:00,
2013-06-16 13:53:00,86.0,21.0,-100.00,SW,224,7.0,23.0,9,0.00,,,0.00,1418.000000,,2013-06-16 20:53:00,
2013-06-16 14:01:00,86.0,21.0,-100.00,SW,224,7.0,23.0,9,0.00,,,0.00,1418.000000,,2013-06-16 21:01:00,
2013-06-16 14:11:00,86.0,21.0,-100.00,SW,224,7.0,23.0,9,0.00,,,0.00,1418.000000,,2013-06-16 21:11:00,
2013-06-16 14:42:00,87.0,30.0,-100.00,SW,222,8.0,18.0,13,0.00,,,0.00,1381.000000,,2013-06-16 21:42:00,
2013-06-16 14:53:00,87.0,30.0,-100.00,SW,222,8.0,18.0,13,0.00,,,0.00,1381.000000,,2013-06-16 21:53:00,
2013-06-16 15:01:00,87.0,30.0,-100.00,SW,222,8.0,18.0,13,0.00,,,0.00,1381.000000,,2013-06-16 22:01:00,
2013-06-16 15:12:00,87.0,30.0,-100.00,SW,222,8.0,18.0,13,0.00,,,0.00,1381.000000,,2013-06-16 22:12:00,
2013-06-16 15:32:00,87.0,37.0,-100.00,SSW,210,8.0,19.0,17,0.00,,,0.00,1255.000000,,2013-06-16 22:32:00,
2013-06-16 15:42:00,87.0,37.0,-100.00,SSW,210,8.0,19.0,17,0.00,,,0.00,1255.000000,,2013-06-16 22:42:00,
2013-06-16 15:52:00,87.0,37.0,-100.00,SSW,210,8.0,19.0,17,0.00,,,0.00,1255.000000,,2013-06-16 22:52:00,
2013-06-16 16:01:00,87.0,37.0,-100.00,SSW,210,8.0,19.0,17,0.00,,,0.00,1255.000000,,2013-06-16 23:01:00,
2013-06-16 16:11:00,87.0,37.0,-100.00,SSW,210,8.0,19.0,17,0.00,,,0.00,1255.000000,,2013-06-16 23:11:00,
2013-06-16 16:42:00,85.0,29.0,-100.00,SW,222,8.0,18.0,13,0.00,,,0.00,1068.000000,,2013-06-16 23:42:00,
2013-06-16 16:52:00,85.0,29.0,-100.00,SW,222,8.0,18.0,13,0.00,,,0.00,1068.000000,,2013-06-16 23:52:00,
2013-06-16 17:01:00,85.0,29.0,-100.00,SW,222,8.0,18.0,13,0.00,,,0.00,1068.000000,,2013-06-17 00:01:00,
2013-06-16 18:43:00,82.0,37.0,-100.00,WNW,290,6.0,14.0,20,-99.99,,,0.00,539.000000,,2013-06-17 01:43:00,
2013-06-16 18:53:00,82.0,37.0,-100.00,WNW,290,6.0,14.0,20,-99.99,,,0.00,539.000000,,2013-06-17 01:53:00,
2013-06-16 19:02:00,82.0,37.0,-100.00,WNW,290,6.0,14.0,20,-99.99,,,0.00,539.000000,,2013-06-17 02:02:00,
2013-06-16 19:11:00,82.0,37.0,-100.00,WNW,290,6.0,14.0,20,-99.99,,,0.00,539.000000,,2013-06-17 02:11:00,
2013-06-16 19:43:00,74.0,42.0,-100.00,West,280,3.0,10.0,32,0.00,,,0.00,227.000000,,2013-06-17 02:43:00,
2013-06-16 19:53:00,74.0,42.0,-100.00,West,280,3.0,10.0,32,0.00,,,0.00,227.000000,,2013-06-17 02:53:00,
2013-06-16 20:02:00,74.0,42.0,-100.00,West,280,3.0,10.0,32,0.00,,,0.00,227.000000,,2013-06-17 03:02:00,
2013-06-16 20:12:00,74.0,42.0,-100.00,West,280,3.0,10.0,32,0.00,,,0.00,227.000000,,2013-06-17 03:12:00,
2013-06-16 20:44:00,67.0,48.0,-100.00,SSW,212,2.0,8.0,50,0.00,,,0.00,12.000000,,2013-06-17 03:44:00,
2013-06-16 20:54:00,67.0,48.0,-100.00,SSW,212,2.0,8.0,50,0.00,,,0.00,12.000000,,2013-06-17 03:54:00,
2013-06-16 21:02:00,67.0,48.0,-100.00,SSW,212,2.0,8.0,50,0.00,,,0.00,12.000000,,2013-06-17 04:02:00,
2013-06-16 21:12:00,67.0,48.0,-100.00,SSW,212,2.0,8.0,50,0.00,,,0.00,12.000000,,2013-06-17 04:12:00,
2013-06-16 21:43:00,60.0,47.0,-100.00,SSE,168,0.0,7.0,61,0.00,,,0.00,0.000000,,2013-06-17 04:43:00,
2013-06-16 21:53:00,60.0,47.0,-100.00,SSE,168,0.0,7.0,61,0.00,,,0.00,0.000000,,2013-06-17 04:53:00,
2013-06-16 22:02:00,60.0,47.0,-100.00,SSE,168,0.0,7.0,61,0.00,,,0.00,0.000000,,2013-06-17 05:02:00,
2013-06-16 22:11:00,60.0,47.0,-100.00,SSE,168,0.0,7.0,61,0.00,,,0.00,0.000000,,2013-06-17 05:11:00,
2013-06-16 22:44:00,53.0,43.0,-100.00,NNW,330,0.0,4.0,69,0.00,,,0.00,0.000000,,2013-06-17 05:44:00,
2013-06-16 22:53:00,53.0,43.0,-100.00,NNW,330,0.0,4.0,69,0.00,,,0.00,0.000000,,2013-06-17 05:53:00,
2013-06-16 23:02:00,53.0,43.0,-100.00,NNW,330,0.0,4.0,69,0.00,,,0.00,0.000000,,2013-06-17 06:02:00,
2013-06-16 23:12:00,53.0,43.0,-100.00,NNW,330,0.0,4.0,69,0.00,,,0.00,0.000000,,2013-06-17 06:12:00,
2013-06-16 23:43:00,51.0,43.0,-100.00,NNW,331,0.0,3.0,73,0.00,,,0.00,0.000000,,2013-06-17 06:43:00,
2013-06-16 23:53:00,51.0,43.0,-100.00,NNW,331,0.0,3.0,73,0.00,,,0.00,0.000000,,2013-06-17 06:53:00,